Hazen, ND

2:54 AM CST on February 14, 2016 (GMT -0600)
Mercer County Regional | | Change Station
CLOSE
Current Station
Airport
Location: Hazen,
Elevation: 1814 ft
Nearby Weather Stations

Elev 1814 ft 47.29 °N, 101.58 °W | Updated 59 minutes ago

Overcast
Overcast
25 °F
Feels Like 19 °F
N
5
Wind Variable Wind from West

Today
High -- | Low -- °F
--% Chance of Precip.
Yesterday
High -- | Low -- °F
Precip. -- in
Pressure 29.79 in
Visibility 6.0 miles
Clouds Overcast 600 ft
Windchill 19 °F
Dew Point 25 °F
Humidity 100%
Rainfall 0.00 in
Snow Depth Not available.
7:53 AM 6:08 PM
Waxing Crescent, 39% visible
METAR KHZE 140755Z AUTO 27004KT 6SM BR OVC006 M04/M04 A2979 RMK AO2 TSNO
Pressure 29.79 in
Visibility 6.0 miles
Clouds Overcast 600 ft
Windchill 19 °F
Dew Point 25 °F
Humidity 100%
Rainfall 0.00 in
Snow Depth Not available.
7:53 AM 6:08 PM
Waxing Crescent, 39% visible
METAR KHZE 140755Z AUTO 27004KT 6SM BR OVC006 M04/M04 A2979 RMK AO2 TSNO

10-Day Weather Forecast

Almanac

Astronomy

Feb. 14, 2016 Rise Set
Actual Time
Civil Twilight
Nautical Twilight
Astronomical Twilight
Moon
Length of Visible Light
Length of Day
Tomorrow will be .
, % of the Moon is Illuminated

Today's Extremes

State Highs State Lows

Community

WunderPhotos

Upload Photos

1,892,763 photos uploaded!

WunderBlog® & News

Nearby

Air Quality

  Air Quality AQ Index Pollutant
Not available.

Snow Depth

Station Depth Elevation

Earthquake Activity

City Distance Mag. Time & Date
Minimum magnitude displayed is 2.5.

Coastal Water Temperatures

Place Temperature

Stations

Nearby Weather Stations

Station Location Temp. Windchill Dew Point Humidity Wind Precip. Elev Updated Type
                   

Watches & Warnings

There are currently no watches in effect.